createdAt,value
2018-05-27T00:02:18.865Z,99035.41
2018-05-27T00:04:52.650Z,99031.09
2018-05-27T00:07:26.435Z,99024.53
2018-05-27T00:10:00.061Z,99031.98
2018-05-27T00:12:33.722Z,99032.37
2018-05-27T00:15:07.423Z,99032.67
2018-05-27T00:17:41.211Z,99029.97
2018-05-27T00:20:14.772Z,99024.70
2018-05-27T00:22:48.618Z,99022.30
2018-05-27T00:25:22.415Z,99018.39
2018-05-27T00:27:56.028Z,99015.85
2018-05-27T00:30:29.815Z,99014.28
2018-05-27T00:33:03.406Z,99011.59
2018-05-27T00:35:37.301Z,99013.91
2018-05-27T00:38:11.023Z,99004.86
2018-05-27T00:40:44.785Z,99009.05
2018-05-27T00:43:18.398Z,99001.52
2018-05-27T00:45:52.247Z,98996.93
2018-05-27T00:48:25.793Z,98996.97
2018-05-27T00:50:59.625Z,98995.00
2018-05-27T00:53:45.231Z,98989.50
2018-05-27T00:56:19.199Z,98986.05
2018-05-27T00:58:52.998Z,98985.55
2018-05-27T01:01:26.765Z,98982.75
2018-05-27T01:04:00.655Z,98994.07
2018-05-27T01:06:34.510Z,98999.34
2018-05-27T01:09:08.190Z,98993.14
2018-05-27T01:11:41.925Z,98995.45
2018-05-27T01:14:15.605Z,98989.67
2018-05-27T01:16:49.222Z,98996.02
2018-05-27T01:19:22.869Z,98995.36
2018-05-27T01:21:56.498Z,98999.01
2018-05-27T01:24:30.131Z,98995.13
2018-05-27T01:27:03.895Z,98987.30
2018-05-27T01:29:37.547Z,98989.61
2018-05-27T01:32:11.137Z,98992.44
2018-05-27T01:34:44.707Z,98990.03
2018-05-27T01:37:18.324Z,98995.30
2018-05-27T01:39:51.993Z,98997.31
2018-05-27T01:42:25.836Z,98996.80
2018-05-27T01:44:59.627Z,98997.47
2018-05-27T01:47:33.425Z,98991.05
2018-05-27T01:50:06.960Z,98987.69
2018-05-27T01:52:41.441Z,98990.39
2018-05-27T01:55:15.163Z,98994.02
2018-05-27T01:57:48.879Z,98985.00
2018-05-27T02:00:22.690Z,98989.16
2018-05-27T02:02:56.423Z,98987.70
2018-05-27T02:05:30.482Z,98985.68
2018-05-27T02:08:04.361Z,98979.77
2018-05-27T02:10:38.189Z,98973.98
2018-05-27T02:13:11.986Z,98972.77
2018-05-27T02:15:45.870Z,98972.39
2018-05-27T02:18:19.453Z,98977.91
2018-05-27T02:20:53.208Z,98972.81
2018-05-27T02:23:27.084Z,98973.09
2018-05-27T02:26:00.839Z,98976.31
2018-05-27T02:28:34.588Z,98972.97
2018-05-27T02:31:08.499Z,98978.48
2018-05-27T02:33:42.306Z,98967.33
2018-05-27T02:36:16.057Z,98972.59
2018-05-27T02:38:49.826Z,98965.84
2018-05-27T02:41:23.617Z,98965.46
2018-05-27T02:43:57.528Z,98962.94
2018-05-27T02:46:31.131Z,98953.11
2018-05-27T02:49:05.078Z,98947.09
2018-05-27T02:51:39.785Z,98949.91
2018-05-27T02:54:13.455Z,98947.64
2018-05-27T02:56:47.174Z,98948.31
2018-05-27T02:59:20.863Z,98948.59
2018-05-27T03:01:54.554Z,98949.66
2018-05-27T03:04:28.237Z,98949.40
2018-05-27T03:07:01.895Z,98950.18
2018-05-27T03:09:35.509Z,98954.90
2018-05-27T03:12:09.233Z,98957.05
2018-05-27T03:14:43.015Z,98957.04
2018-05-27T03:17:16.828Z,98961.59
2018-05-27T03:19:50.631Z,98963.75
2018-05-27T03:22:24.389Z,98957.42
2018-05-27T03:24:58.143Z,98954.62
2018-05-27T03:27:31.859Z,98951.53
2018-05-27T03:30:06.255Z,98954.35
2018-05-27T03:32:39.984Z,98965.10
2018-05-27T03:35:13.753Z,98953.80
2018-05-27T03:37:47.451Z,98950.16
2018-05-27T03:40:21.240Z,98953.50
2018-05-27T03:42:54.988Z,98957.81
2018-05-27T03:45:28.779Z,98964.14
2018-05-27T03:48:02.533Z,98958.89
2018-05-27T03:50:36.189Z,98957.78
2018-05-27T03:53:09.939Z,98955.63
2018-05-27T03:55:43.614Z,98956.42
2018-05-27T03:58:17.305Z,98959.75
2018-05-27T04:00:50.952Z,98952.52
2018-05-27T04:03:24.675Z,98957.73
2018-05-27T04:06:10.291Z,98960.02
2018-05-27T04:08:44.032Z,98959.68
2018-05-27T04:11:17.826Z,98956.55
2018-05-27T04:13:51.661Z,98950.60
2018-05-27T04:16:25.254Z,98956.51
2018-05-27T04:18:58.950Z,98954.22
2018-05-27T04:21:32.845Z,98955.83
2018-05-27T04:24:06.620Z,98963.45
2018-05-27T04:26:40.139Z,98955.88
2018-05-27T04:29:13.986Z,98954.31
2018-05-27T04:31:47.619Z,98960.55
2018-05-27T04:34:21.174Z,98960.91
2018-05-27T04:36:55.904Z,98958.67
2018-05-27T04:39:29.690Z,98958.61
2018-05-27T04:42:03.569Z,98958.78
2018-05-27T04:44:37.384Z,98951.70
2018-05-27T04:47:11.195Z,98954.97
2018-05-27T04:49:45.073Z,98957.96
2018-05-27T04:52:18.831Z,98958.69
2018-05-27T04:54:52.552Z,98950.53
2018-05-27T04:57:26.313Z,98960.20
2018-05-27T05:00:00.188Z,98957.67
2018-05-27T05:02:33.979Z,98957.34
2018-05-27T05:05:07.640Z,98957.25
2018-05-27T05:07:41.355Z,98955.66
2018-05-27T05:10:15.188Z,98958.33
2018-05-27T05:12:48.929Z,98954.78
2018-05-27T05:15:22.859Z,98960.52
2018-05-27T05:17:56.764Z,98953.23
2018-05-27T05:20:30.669Z,98963.48
2018-05-27T05:23:04.942Z,98955.58
2018-05-27T05:25:38.797Z,98961.42
2018-05-27T05:28:12.484Z,98954.73
2018-05-27T05:30:46.310Z,98957.61
2018-05-27T05:33:20.107Z,98961.32
2018-05-27T05:35:53.975Z,98964.94
2018-05-27T05:38:27.850Z,98974.30
2018-05-27T05:41:01.618Z,98970.55
2018-05-27T05:43:35.408Z,98975.42
2018-05-27T05:46:09.186Z,98980.78
2018-05-27T05:48:42.863Z,98975.95
2018-05-27T05:51:16.422Z,98977.56
2018-05-27T05:53:50.283Z,98975.60
2018-05-27T05:56:24.044Z,98979.63
2018-05-27T05:58:57.617Z,98979.20
2018-05-27T06:01:31.451Z,98988.25
2018-05-27T06:04:05.252Z,98992.36
2018-05-27T06:06:39.450Z,98995.73
2018-05-27T06:09:13.251Z,98990.91
2018-05-27T06:11:46.914Z,98995.59
2018-05-27T06:14:20.736Z,99000.14
2018-05-27T06:16:54.591Z,98994.81
2018-05-27T06:19:28.342Z,99008.38
2018-05-27T06:22:02.137Z,98999.70
2018-05-27T06:24:35.998Z,98991.91
2018-05-27T06:27:09.869Z,98994.15
2018-05-27T06:29:43.665Z,98997.30
2018-05-27T06:32:17.397Z,98999.08
2018-05-27T06:34:51.010Z,98988.16
2018-05-27T06:37:24.948Z,98989.99
2018-05-27T06:39:58.713Z,98987.53
2018-05-27T06:42:32.340Z,98985.69
2018-05-27T06:45:06.072Z,98984.56
2018-05-27T06:47:39.870Z,98988.84
2018-05-27T06:50:13.735Z,98987.37
2018-05-27T06:52:47.546Z,98980.77
2018-05-27T06:55:21.061Z,98977.79
2018-05-27T06:57:54.756Z,98978.23
2018-05-27T07:00:28.371Z,98979.63
2018-05-27T07:03:02.012Z,98980.68
2018-05-27T07:05:35.895Z,98975.80
2018-05-27T07:08:09.718Z,98979.28
2018-05-27T07:10:43.491Z,98978.06
2018-05-27T07:13:17.260Z,98970.52
2018-05-27T07:15:51.120Z,98973.90
2018-05-27T07:18:24.930Z,98970.47
2018-05-27T07:20:58.744Z,98975.28
2018-05-27T07:23:32.554Z,98972.23
2018-05-27T07:26:06.358Z,98968.81
2018-05-27T07:28:40.166Z,98971.43
2018-05-27T07:31:13.892Z,98967.77
2018-05-27T07:33:47.500Z,98969.81
2018-05-27T07:36:21.113Z,98970.41
2018-05-27T07:38:54.894Z,98974.58
2018-05-27T07:41:28.661Z,98974.19
2018-05-27T07:44:02.686Z,98978.61
2018-05-27T07:46:36.499Z,98972.34
2018-05-27T07:49:10.248Z,98969.89
2018-05-27T07:51:43.855Z,98974.53
2018-05-27T07:54:23.508Z,98973.24
2018-05-27T07:56:57.269Z,98980.11
2018-05-27T07:59:31.102Z,98981.03
2018-05-27T08:02:04.674Z,98974.33
2018-05-27T08:04:38.544Z,98974.14
2018-05-27T08:07:12.273Z,98971.14
2018-05-27T08:09:45.841Z,98967.03
2018-05-27T08:12:19.507Z,98968.26
2018-05-27T08:14:53.075Z,98957.13
2018-05-27T08:17:26.868Z,98962.45
2018-05-27T08:20:00.499Z,98956.94
2018-05-27T08:22:34.274Z,98959.53
2018-05-27T08:25:08.082Z,98959.25
2018-05-27T08:27:41.826Z,98955.05
2018-05-27T08:30:15.527Z,98955.83
2018-05-27T08:32:49.339Z,98957.95
2018-05-27T08:35:22.883Z,98958.28
2018-05-27T08:37:56.503Z,98960.56
2018-05-27T08:40:30.341Z,98952.77
2018-05-27T08:43:04.986Z,98955.77
2018-05-27T08:45:38.544Z,98950.06
2018-05-27T08:48:12.389Z,98948.41
2018-05-27T08:50:46.227Z,98951.98
2018-05-27T08:53:19.931Z,98949.50
2018-05-27T08:55:53.783Z,98948.84
2018-05-27T08:58:27.538Z,98949.33
2018-05-27T09:01:01.405Z,98943.88
2018-05-27T09:03:35.152Z,98944.36
2018-05-27T09:06:08.920Z,98935.33
2018-05-27T09:08:42.634Z,98942.37
2018-05-27T09:11:16.232Z,98945.24
2018-05-27T09:13:50.017Z,98939.93
2018-05-27T09:16:23.811Z,98939.73
2018-05-27T09:18:57.586Z,98938.53
2018-05-27T09:21:31.405Z,98938.11
2018-05-27T09:24:05.040Z,98928.35
2018-05-27T09:26:38.932Z,98928.23
2018-05-27T09:29:12.721Z,98936.69
2018-05-27T09:31:46.341Z,98926.16
2018-05-27T09:34:20.038Z,98928.86
2018-05-27T09:36:53.820Z,98922.94
2018-05-27T09:39:27.499Z,98924.30
2018-05-27T09:42:01.115Z,98933.16
2018-05-27T09:44:34.760Z,98923.41
2018-05-27T09:47:08.415Z,98927.63
2018-05-27T09:49:42.325Z,98922.45
2018-05-27T09:52:15.972Z,98921.00
2018-05-27T09:54:49.753Z,98924.41
2018-05-27T09:57:23.609Z,98920.58
2018-05-27T09:59:57.343Z,98921.02
2018-05-27T10:02:31.020Z,98915.72
2018-05-27T10:05:04.825Z,98911.95
2018-05-27T10:07:38.723Z,98905.33
2018-05-27T10:10:12.653Z,98898.56
2018-05-27T10:12:46.475Z,98898.53
2018-05-27T10:15:20.356Z,98896.48
2018-05-27T10:17:53.959Z,98893.54
2018-05-27T10:20:27.660Z,98890.42
2018-05-27T10:23:01.367Z,98880.67
2018-05-27T10:25:35.039Z,98889.92
2018-05-27T10:28:08.833Z,98882.38
2018-05-27T10:30:42.684Z,98883.55
2018-05-27T10:33:16.378Z,98867.48
2018-05-27T10:35:50.183Z,98866.20
2018-05-27T10:38:23.794Z,98857.60
2018-05-27T10:40:57.447Z,98862.23
2018-05-27T10:43:31.250Z,98855.94
2018-05-27T10:46:04.891Z,98850.48
2018-05-27T10:48:38.653Z,98852.70
2018-05-27T10:51:12.363Z,98853.56
2018-05-27T10:53:46.184Z,98843.27
2018-05-27T10:56:19.957Z,98838.00
2018-05-27T10:58:54.929Z,98832.30
2018-05-27T11:01:32.690Z,98839.06
2018-05-27T11:04:22.200Z,98831.88
2018-05-27T11:07:14.463Z,98837.20
2018-05-27T11:09:53.458Z,98832.29
2018-05-27T11:12:43.401Z,98834.92
2018-05-27T11:15:18.220Z,98822.59
2018-05-27T11:17:52.027Z,98830.42
2018-05-27T11:20:25.903Z,98832.93
2018-05-27T11:22:59.539Z,98833.86
2018-05-27T11:25:33.377Z,98825.35
2018-05-27T11:28:07.159Z,98827.00
2018-05-27T11:30:40.918Z,98816.06
2018-05-27T11:33:14.569Z,98810.92
2018-05-27T11:35:48.404Z,98804.81
2018-05-27T11:38:22.192Z,98817.88
2018-05-27T11:40:55.898Z,98805.68
2018-05-27T11:43:29.754Z,98801.73
2018-05-27T11:46:03.482Z,98802.06
2018-05-27T11:48:37.416Z,98800.34
2018-05-27T11:51:11.097Z,98796.42
2018-05-27T11:53:44.805Z,98782.65
2018-05-27T11:56:18.636Z,98772.27
2018-05-27T11:58:52.426Z,98769.68
2018-05-27T12:01:27.711Z,98761.13
2018-05-27T12:04:01.332Z,98762.47
2018-05-27T12:06:35.222Z,98754.15
2018-05-27T12:09:09.004Z,98770.28
2018-05-27T12:11:42.827Z,98757.62
2018-05-27T12:14:16.542Z,98754.64
2018-05-27T12:16:50.243Z,98753.89
2018-05-27T12:19:24.816Z,98762.76
2018-05-27T12:21:58.399Z,98767.67
2018-05-27T12:24:32.283Z,98758.34
2018-05-27T12:27:06.088Z,98767.00
2018-05-27T12:29:39.865Z,98760.78
2018-05-27T12:32:13.654Z,98764.42
2018-05-27T12:34:47.527Z,98762.67
2018-05-27T12:37:21.204Z,98759.54
2018-05-27T12:39:55.042Z,98759.13
2018-05-27T12:42:28.858Z,98775.53
2018-05-27T12:45:02.568Z,98768.19
2018-05-27T12:47:37.010Z,98769.70
2018-05-27T12:50:10.812Z,98783.89
2018-05-27T12:52:44.631Z,98775.59
2018-05-27T12:55:18.379Z,98776.67
2018-05-27T12:57:52.113Z,98769.15
2018-05-27T13:00:25.923Z,98775.98
2018-05-27T13:02:59.528Z,98776.91
2018-05-27T13:05:33.119Z,98779.44
2018-05-27T13:08:06.779Z,98781.41
2018-05-27T13:10:40.692Z,98779.25
2018-05-27T13:13:14.330Z,98782.33
2018-05-27T13:15:48.128Z,98784.62
2018-05-27T13:18:21.832Z,98790.67
2018-05-27T13:20:55.411Z,98785.36
2018-05-27T13:23:29.124Z,98790.47
2018-05-27T13:26:02.834Z,98785.79
2018-05-27T13:28:36.714Z,98789.63
2018-05-27T13:31:10.394Z,98790.62
2018-05-27T13:33:44.314Z,98783.34
2018-05-27T13:36:17.947Z,98783.69
2018-05-27T13:38:51.815Z,98775.92
2018-05-27T13:41:25.510Z,98768.48
2018-05-27T13:43:59.314Z,98777.80
2018-05-27T13:46:32.953Z,98782.62
2018-05-27T13:49:06.835Z,98772.63
2018-05-27T13:51:40.595Z,98771.66
2018-05-27T13:54:14.362Z,98782.03
2018-05-27T13:56:48.129Z,98787.53
2018-05-27T13:59:21.925Z,98789.56
2018-05-27T14:01:55.721Z,98791.14
2018-05-27T14:04:29.724Z,98787.73
2018-05-27T14:07:03.419Z,98784.98
2018-05-27T14:09:37.216Z,98779.40
2018-05-27T14:12:11.017Z,98778.48
2018-05-27T14:14:44.774Z,98785.98
2018-05-27T14:17:18.571Z,98781.08
2018-05-27T14:19:52.315Z,98780.21
2018-05-27T14:22:25.940Z,98782.75
2018-05-27T14:24:59.716Z,98786.08
2018-05-27T14:27:33.514Z,98786.12
2018-05-27T14:30:07.325Z,98785.92
2018-05-27T14:32:41.204Z,98783.91
2018-05-27T14:35:14.973Z,98786.48
2018-05-27T14:37:48.759Z,98769.39
2018-05-27T14:40:22.400Z,98780.44
2018-05-27T14:42:56.247Z,98778.06
2018-05-27T14:45:29.823Z,98778.94
2018-05-27T14:48:03.706Z,98782.47
2018-05-27T14:50:37.484Z,98778.53
2018-05-27T14:53:11.285Z,98774.78
2018-05-27T14:55:44.905Z,98771.45
2018-05-27T14:58:18.712Z,98761.05
2018-05-27T15:00:52.470Z,98763.85
2018-05-27T15:03:26.292Z,98762.41
2018-05-27T15:05:59.936Z,98755.37
2018-05-27T15:08:33.700Z,98748.30
2018-05-27T15:11:07.548Z,98746.21
2018-05-27T15:13:41.231Z,98744.05
2018-05-27T15:16:15.028Z,98750.03
2018-05-27T15:19:01.632Z,98745.82
2018-05-27T15:21:51.290Z,98749.41
2018-05-27T15:24:41.560Z,98749.02
2018-05-27T15:27:15.253Z,98752.72
2018-05-27T15:29:48.897Z,98753.31
2018-05-27T15:32:22.723Z,98752.31
2018-05-27T15:34:56.375Z,98757.09
2018-05-27T15:37:30.236Z,98760.30
2018-05-27T15:40:04.029Z,98753.92
2018-05-27T15:42:37.682Z,98763.32
2018-05-27T15:45:11.532Z,98761.59
2018-05-27T15:47:45.437Z,98767.17
2018-05-27T15:50:19.241Z,98769.02
2018-05-27T15:52:52.983Z,98772.20
2018-05-27T15:55:26.667Z,98775.56
2018-05-27T15:58:00.480Z,98770.98
2018-05-27T16:00:34.247Z,98772.71
2018-05-27T16:03:07.963Z,98771.95
2018-05-27T16:05:41.627Z,98763.64
2018-05-27T16:08:15.338Z,98766.23
2018-05-27T16:10:49.148Z,98765.53
2018-05-27T16:13:22.706Z,98764.85
2018-05-27T16:15:56.477Z,98754.34
2018-05-27T16:18:30.233Z,98753.83
2018-05-27T16:21:04.140Z,98756.89
2018-05-27T16:23:38.179Z,98755.20
2018-05-27T16:26:11.792Z,98756.67
2018-05-27T16:28:45.618Z,98755.86
2018-05-27T16:31:19.424Z,98755.98
2018-05-27T16:33:53.025Z,98761.38
2018-05-27T16:36:26.672Z,98760.30
2018-05-27T16:39:00.442Z,98758.78
2018-05-27T16:41:34.120Z,98762.98
2018-05-27T16:44:07.815Z,98760.03
2018-05-27T16:46:41.462Z,98759.91
2018-05-27T16:49:15.343Z,98755.37
2018-05-27T16:51:49.156Z,98759.29
2018-05-27T16:54:22.748Z,98760.88
2018-05-27T16:56:56.606Z,98767.34
2018-05-27T16:59:30.303Z,98760.13
2018-05-27T17:02:04.086Z,98762.91
2018-05-27T17:04:37.910Z,98761.48
2018-05-27T17:07:11.570Z,98767.44
2018-05-27T17:09:45.249Z,98770.68
2018-05-27T17:12:19.063Z,98778.80
2018-05-27T17:14:52.710Z,98785.44
2018-05-27T17:17:26.314Z,98792.94
2018-05-27T17:20:00.086Z,98802.70
2018-05-27T17:22:33.798Z,98798.72
2018-05-27T17:25:07.536Z,98802.30
2018-05-27T17:27:41.303Z,98800.25
2018-05-27T17:30:14.954Z,98803.35
2018-05-27T17:32:48.543Z,98809.58
2018-05-27T17:35:22.264Z,98807.62
2018-05-27T17:37:56.051Z,98808.77
2018-05-27T17:40:29.898Z,98806.06
2018-05-27T17:43:03.725Z,98800.25
2018-05-27T17:45:37.342Z,98795.92
2018-05-27T17:48:13.053Z,98796.70
2018-05-27T17:50:46.811Z,98803.52
2018-05-27T17:53:20.598Z,98804.29
2018-05-27T17:55:54.269Z,98806.31
2018-05-27T17:58:28.052Z,98803.44
2018-05-27T18:01:01.925Z,98800.91
2018-05-27T18:03:35.698Z,98804.78
2018-05-27T18:06:09.279Z,98803.98
2018-05-27T18:08:43.118Z,98807.06
2018-05-27T18:11:16.797Z,98812.11
2018-05-27T18:13:51.526Z,98807.62
2018-05-27T18:16:25.077Z,98814.07
2018-05-27T18:18:58.832Z,98809.83
2018-05-27T18:21:32.587Z,98810.83
2018-05-27T18:24:06.194Z,98808.27
2018-05-27T18:26:39.967Z,98808.20
2018-05-27T18:29:13.792Z,98805.48
2018-05-27T18:31:47.545Z,98806.63
2018-05-27T18:34:21.314Z,98808.27
2018-05-27T18:36:54.814Z,98814.80
2018-05-27T18:39:28.659Z,98815.86
2018-05-27T18:42:02.236Z,98819.23
2018-05-27T18:44:35.922Z,98818.51
2018-05-27T18:47:09.614Z,98821.10
2018-05-27T18:49:43.387Z,98826.47
2018-05-27T18:52:17.168Z,98818.55
2018-05-27T18:54:50.665Z,98823.77
2018-05-27T18:57:24.305Z,98828.83
2018-05-27T18:59:58.111Z,98825.30
2018-05-27T19:02:31.770Z,98826.92
2018-05-27T19:05:05.701Z,98830.69
2018-05-27T19:07:39.609Z,98824.59
2018-05-27T19:10:13.338Z,98820.45
2018-05-27T19:12:47.008Z,98828.20
2018-05-27T19:15:20.666Z,98826.39
2018-05-27T19:17:54.293Z,98830.05
2018-05-27T19:20:28.055Z,98826.86
2018-05-27T19:23:01.731Z,98827.27
2018-05-27T19:25:35.368Z,98824.08
2018-05-27T19:28:09.108Z,98820.78
2018-05-27T19:30:42.872Z,98826.53
2018-05-27T19:33:16.614Z,98826.53
2018-05-27T19:35:50.451Z,98828.06
2018-05-27T19:38:24.093Z,98831.55
2018-05-27T19:40:57.911Z,98829.25
2018-05-27T19:43:31.697Z,98827.70
2018-05-27T19:46:05.466Z,98832.50
2018-05-27T19:48:39.247Z,98837.59
2018-05-27T19:51:13.033Z,98842.97
2018-05-27T19:53:46.762Z,98840.08
2018-05-27T19:56:20.535Z,98839.43
2018-05-27T19:58:54.183Z,98835.02
2018-05-27T20:01:27.998Z,98832.11
2018-05-27T20:04:01.915Z,98834.97
2018-05-27T20:06:35.744Z,98842.51
2018-05-27T20:09:09.331Z,98841.21
2018-05-27T20:11:42.957Z,98845.23
2018-05-27T20:14:16.617Z,98849.77
2018-05-27T20:16:50.265Z,98843.23
2018-05-27T20:19:24.024Z,98845.53
2018-05-27T20:21:57.685Z,98836.73
2018-05-27T20:24:31.480Z,98832.66
2018-05-27T20:27:05.403Z,98837.53
2018-05-27T20:29:39.118Z,98840.72
2018-05-27T20:32:12.951Z,98847.92
2018-05-27T20:34:46.735Z,98839.59
2018-05-27T20:37:20.484Z,98843.09
2018-05-27T20:39:54.219Z,98837.16
2018-05-27T20:42:28.066Z,98835.64
2018-05-27T20:45:01.898Z,98833.42
2018-05-27T20:47:36.235Z,98836.52
2018-05-27T20:50:10.076Z,98832.62
2018-05-27T20:52:43.644Z,98832.44
2018-05-27T20:55:17.460Z,98833.77
2018-05-27T20:57:51.336Z,98833.77
2018-05-27T21:00:25.053Z,98831.78
2018-05-27T21:02:58.893Z,98830.73
2018-05-27T21:05:32.689Z,98829.82
2018-05-27T21:08:06.358Z,98841.06
2018-05-27T21:10:40.197Z,98849.10
2018-05-27T21:13:14.026Z,98842.64
2018-05-27T21:15:47.823Z,98836.73
2018-05-27T21:18:21.613Z,98847.30
2018-05-27T21:20:55.387Z,98851.96
2018-05-27T21:23:29.182Z,98845.09
2018-05-27T21:26:03.009Z,98842.34
2018-05-27T21:28:36.812Z,98837.94
2018-05-27T21:31:10.652Z,98837.14
2018-05-27T21:33:44.336Z,98843.34
2018-05-27T21:36:18.149Z,98837.34
2018-05-27T21:38:51.760Z,98832.06
2018-05-27T21:41:25.545Z,98833.64
2018-05-27T21:43:59.415Z,98840.23
2018-05-27T21:46:33.267Z,98842.36
2018-05-27T21:49:09.027Z,98837.00
2018-05-27T21:51:42.768Z,98845.28
2018-05-27T21:54:16.527Z,98841.13
2018-05-27T21:56:50.366Z,98847.12
2018-05-27T21:59:24.051Z,98851.98
2018-05-27T22:01:57.790Z,98852.35
2018-05-27T22:04:31.763Z,98846.59
2018-05-27T22:07:05.488Z,98840.60
2018-05-27T22:09:39.193Z,98846.47
2018-05-27T22:12:12.890Z,98847.74
2018-05-27T22:14:46.693Z,98845.80
2018-05-27T22:17:20.541Z,98843.88
2018-05-27T22:19:54.302Z,98844.09
2018-05-27T22:22:28.157Z,98848.89
2018-05-27T22:25:01.939Z,98842.66
2018-05-27T22:27:35.791Z,98849.19
2018-05-27T22:30:09.413Z,98843.13
2018-05-27T22:32:43.090Z,98833.31
2018-05-27T22:35:16.867Z,98835.98
2018-05-27T22:37:50.848Z,98832.36
2018-05-27T22:40:24.565Z,98831.25
2018-05-27T22:42:58.446Z,98835.78
2018-05-27T22:45:32.288Z,98834.78
2018-05-27T22:48:06.054Z,98838.63
2018-05-27T22:50:39.739Z,98829.20
2018-05-27T22:53:13.397Z,98827.66
2018-05-27T22:55:47.097Z,98827.87
2018-05-27T22:58:20.870Z,98833.47
2018-05-27T23:00:54.691Z,98827.70
2018-05-27T23:03:28.490Z,98828.54
2018-05-27T23:06:02.120Z,98830.28
2018-05-27T23:08:35.908Z,98827.86
2018-05-27T23:11:09.559Z,98823.86
2018-05-27T23:13:43.327Z,98829.05
2018-05-27T23:16:17.218Z,98834.06
2018-05-27T23:18:51.037Z,98834.20
2018-05-27T23:21:24.860Z,98832.91
2018-05-27T23:23:58.668Z,98825.45
2018-05-27T23:26:32.497Z,98830.27
2018-05-27T23:29:06.461Z,98826.19
2018-05-27T23:31:40.200Z,98821.44
2018-05-27T23:34:13.995Z,98818.12
2018-05-27T23:36:47.766Z,98815.16
2018-05-27T23:39:21.682Z,98814.52
2018-05-27T23:41:55.494Z,98806.80
2018-05-27T23:44:29.317Z,98806.30
2018-05-27T23:47:02.976Z,98798.45
2018-05-27T23:49:36.807Z,98797.14
2018-05-27T23:52:10.667Z,98801.36
2018-05-27T23:54:44.456Z,98803.55
2018-05-27T23:57:18.247Z,98802.13
2018-05-27T23:59:52.032Z,98793.63
